Bear Branch, KY (41714)

9:19 AM EST en Febrero 08, 2016 (GMT -0500)
crawford rd | | Change Station
CLOSE
Current Station
Estación meteorológica personal
Location: Manchester, KY
Altura: 856 ft
Estaciones meteorológicas cercanas
Aviso en curso: Winter Weather Advisory

Alt 856 ft 37.11 °N, 83.75 °W | Updated 2 seconds ago

Nublado
Nublado
36.8 ° F
Sensación térmica 37 ° F
N
0.0
Viento Variable Viento desde Este
Gusts 0.0 mph

Hoy
Alta -- | Baja -- ° F
--% Posibilidad de precipitaciones
Ayer
Alta -- | Baja -- ° F
Precip. -- pul
Presión 29.72 pul
Visibilidad 10.0 Millas
Nubes Nublado 2100 ft
Vientos helados 37 ° F
Punto de rocío 35 ° F
Humedad 94%
Precipitaciones pul
Espesor de la nieve No disponible.
7:30 AM 6:05 PM
Creciente menguante, 0% visible
METAR KI35 081355Z AUTO 22003KT 10SM OVC021 02/M01 A2972 RMK AO1
Presión 29.72 pul
Visibilidad 10.0 Millas
Nubes Nublado 2100 ft
Vientos helados 37 ° F
Punto de rocío 35 ° F
Humedad 94%
Precipitaciones pul
Espesor de la nieve No disponible.
7:30 AM 6:05 PM
Creciente menguante, 0% visible
METAR KI35 081355Z AUTO 22003KT 10SM OVC021 02/M01 A2972 RMK AO1

10-Day Weather Forecast

Almanac

Astronomía

Feb. 08, 2016 Salida Puesta
Hora real
Crepúsculo civil
Crepúsculo náutico
Crepúsculo astronómico
Luna
Horas de luz
Horas de luz
Tomorrow will be .
, % of the Moon is Illuminated

Extremos de hoy

Máximos del estado Bajos del estado

Community

WunderPhotos

Upload Photos

1,891,437 ¡fotos cargadas!

WunderBlog® & News

Nearby

Calidad del aire

  Calidad del aire Índice AQ Contaminante
Not available.

Grosos de nieve

Estación Profundido Altura

Actividad de terremotos

Ciudad Distance Mag. Tiempo y dato
Magnitud mínima muestra es 2,5.

Temperaturas de aguas costeras

Lugar Temperatura

Stations

Estaciones meteorológicas cercanas

Ubicación de la estación Temp. Vientos helados Punto de rocío Humedad Viento Precip. Alt Actualizado Tipo
                   

Watches & Warnings

Winter Weather Advisory
Issued: 8:25 AM EST Feb. 8, 2016 – National Weather Service

... Winter Weather Advisory remains in effect from 6 PM this
evening to 6 am EST Wednesday...

* rain and snow showers will change to snow showers by this
evening... and temperatures will fall below freezing. Snow
showers will continue at times into Tuesday night... and then
begin to taper off.

* Snow will accumulate over a prolonged period... with totals by
late Tuesday night in the 2 to 4 inch range for most areas.

* As temperatures fall below freezing... roads and walkways will
become slippery... especially those which are untreated.
Localized heavy snow showers may also bring greatly reduced
visibility at times.

Precautionary/preparedness actions...

A Winter Weather Advisory for snow means that periods of snow
will cause primarily travel difficulties. Be prepared for snow
covered roads and limited visibilities... and use caution while
driving.



Hal/geogerian